createdAt,value
2023-03-23T15:58:40.006Z,61.76
2023-03-23T16:01:14.594Z,62.03
2023-03-23T16:03:53.984Z,62.18
2023-03-23T16:06:25.969Z,62.48
2023-03-23T16:08:57.635Z,62.91
2023-03-23T16:11:28.504Z,63.19
2023-03-23T16:13:56.467Z,63.25
2023-03-23T16:16:53.058Z,63.52
2023-03-23T16:19:24.413Z,63.93
2023-03-23T16:21:52.806Z,64.12
2023-03-23T16:24:21.051Z,64.69
2023-03-23T16:26:49.005Z,65.68
2023-03-23T16:29:39.738Z,65.69
2023-03-23T16:32:06.824Z,66.20
2023-03-23T16:34:35.750Z,66.75
2023-03-23T16:37:04.210Z,67.10
2023-03-23T16:39:32.161Z,67.38
2023-03-23T16:42:01.227Z,67.77
2023-03-23T16:44:29.343Z,68.21
2023-03-23T16:46:57.441Z,68.26
2023-03-23T16:49:25.975Z,68.53
2023-03-23T16:51:54.229Z,68.91
2023-03-23T16:54:22.956Z,68.86
2023-03-23T16:56:51.404Z,68.91
2023-03-23T16:59:19.596Z,69.44
2023-03-23T17:01:48.751Z,68.99
2023-03-23T17:04:17.386Z,69.39
2023-03-23T17:06:46.756Z,69.22
2023-03-23T17:09:15.756Z,69.19
2023-03-23T17:11:44.567Z,69.57
2023-03-23T17:14:12.567Z,70.04
2023-03-23T17:16:40.757Z,70.08
2023-03-23T17:19:09.956Z,70.25
2023-03-23T17:21:38.122Z,70.35
2023-03-23T17:24:08.198Z,70.63
2023-03-23T17:26:36.845Z,70.66
2023-03-23T17:29:06.625Z,70.76
2023-03-23T17:31:35.585Z,70.79
2023-03-23T17:34:03.906Z,71.09
2023-03-23T17:36:31.985Z,71.20
2023-03-23T17:38:59.993Z,71.60
2023-03-23T17:41:33.093Z,71.99
2023-03-23T17:44:01.596Z,72.23
2023-03-23T17:46:29.731Z,73.99
2023-03-23T17:48:57.775Z,73.97
2023-03-23T17:51:26.031Z,74.47
2023-03-23T17:53:53.998Z,74.76
2023-03-23T17:56:22.129Z,75.00
2023-03-23T17:58:50.691Z,74.82
2023-03-23T18:01:18.984Z,76.06
2023-03-23T18:03:47.005Z,76.26
2023-03-23T18:06:15.645Z,76.88
2023-03-23T18:08:43.708Z,77.57
2023-03-23T18:11:12.191Z,77.72
2023-03-23T18:13:40.328Z,77.94
2023-03-23T18:16:08.934Z,77.70
2023-03-23T18:18:37.484Z,77.98
2023-03-23T18:21:09.964Z,77.66
2023-03-23T18:23:49.394Z,78.06
2023-03-23T18:26:25.267Z,78.16
2023-03-23T18:28:53.907Z,77.63
2023-03-23T18:31:23.293Z,77.34
2023-03-23T18:33:55.150Z,76.86
2023-03-23T18:36:26.253Z,76.35
2023-03-23T18:38:57.037Z,75.53
2023-03-23T18:41:25.512Z,74.68
2023-03-23T18:43:53.961Z,74.01
2023-03-23T18:46:23.248Z,73.51
2023-03-23T18:48:51.265Z,73.10
2023-03-23T18:51:19.450Z,72.60
2023-03-23T18:53:47.637Z,72.17
2023-03-23T18:56:18.055Z,71.86
2023-03-23T18:58:46.324Z,71.76
2023-03-23T19:04:34.997Z,71.57
2023-03-23T19:07:03.597Z,71.58
2023-03-23T19:09:34.810Z,71.85
2023-03-23T19:12:03.192Z,72.20
2023-03-23T19:14:31.515Z,72.68
2023-03-23T19:16:59.635Z,73.25
2023-03-23T19:19:27.599Z,74.13
2023-03-23T19:21:55.686Z,75.28
2023-03-23T19:24:26.379Z,76.55
2023-03-23T19:26:54.566Z,77.64
2023-03-23T19:29:27.441Z,78.81
2023-03-23T19:31:56.725Z,79.87
2023-03-23T19:34:26.768Z,80.07
2023-03-23T19:37:03.221Z,80.87
2023-03-23T19:39:34.204Z,81.46
2023-03-23T19:42:04.294Z,81.75
2023-03-23T19:44:33.362Z,81.90
2023-03-23T19:47:02.949Z,83.13
2023-03-23T19:49:31.291Z,84.26
2023-03-23T19:52:09.079Z,85.21
2023-03-23T19:54:39.647Z,88.04
2023-03-23T19:57:10.102Z,90.81
2023-03-23T19:59:39.216Z,90.92
2023-03-23T20:02:08.217Z,91.51
2023-03-23T20:04:38.065Z,92.01
2023-03-23T20:07:08.671Z,91.80
2023-03-23T20:09:38.937Z,93.24
2023-03-23T20:12:07.289Z,93.48
2023-03-23T20:14:37.432Z,94.24
2023-03-23T20:17:10.046Z,94.80
2023-03-23T20:19:38.486Z,95.37
2023-03-23T20:22:06.870Z,95.41
2023-03-23T20:24:35.043Z,94.54
2023-03-23T20:27:03.989Z,95.20
2023-03-23T20:29:33.542Z,94.31
2023-03-23T20:32:01.762Z,95.18
2023-03-23T20:34:31.324Z,95.68
2023-03-23T20:37:01.916Z,95.69
2023-03-23T20:39:33.290Z,96.59
2023-03-23T20:42:03.396Z,95.86
2023-03-23T20:44:34.872Z,96.78
2023-03-23T20:47:04.196Z,97.00
2023-03-23T20:49:33.583Z,97.16
2023-03-23T20:52:02.015Z,97.42
2023-03-23T20:54:30.585Z,97.81
2023-03-23T20:56:59.171Z,97.16
2023-03-23T20:59:28.127Z,97.23
2023-03-23T21:01:59.143Z,97.12
2023-03-23T21:04:30.352Z,96.92
2023-03-23T21:06:58.396Z,96.68
2023-03-23T21:09:26.551Z,96.22
2023-03-23T21:11:55.033Z,96.08
2023-03-23T21:14:26.598Z,95.99
2023-03-23T21:16:54.801Z,96.13
2023-03-23T21:19:29.948Z,96.31
2023-03-23T21:21:58.267Z,96.21
2023-03-23T21:24:29.450Z,96.01
2023-03-23T21:27:00.297Z,95.97
2023-03-23T21:29:29.229Z,95.98
2023-03-23T21:32:08.415Z,95.98
2023-03-23T21:34:38.107Z,96.20
2023-03-23T21:37:06.436Z,96.07
2023-03-23T21:39:34.771Z,96.28
2023-03-23T21:42:06.997Z,96.09
2023-03-23T21:44:35.631Z,97.11
2023-03-23T21:47:03.945Z,96.83
2023-03-23T21:49:32.316Z,97.18
2023-03-23T21:52:00.562Z,97.62
2023-03-23T21:54:30.443Z,98.41
2023-03-23T21:56:59.282Z,99.03
2023-03-23T21:59:28.240Z,99.35
2023-03-23T22:01:58.333Z,99.72
2023-03-23T22:04:28.140Z,99.75
2023-03-23T22:06:57.076Z,99.73
2023-03-23T22:09:25.589Z,99.32
2023-03-23T22:11:54.063Z,99.32
2023-03-23T22:14:28.837Z,99.03
2023-03-23T22:16:57.017Z,99.09
2023-03-23T22:19:25.302Z,98.95
2023-03-23T22:21:53.587Z,98.60
2023-03-23T22:24:22.004Z,98.42
2023-03-23T22:26:50.597Z,98.25
2023-03-23T22:29:19.221Z,97.97
2023-03-23T22:31:47.565Z,97.73
2023-03-23T22:34:16.726Z,97.52
2023-03-23T22:36:45.176Z,97.42
2023-03-23T22:39:14.438Z,97.30
2023-03-23T22:41:42.915Z,97.14
2023-03-23T22:44:14.484Z,96.85
2023-03-23T22:46:43.731Z,96.53
2023-03-23T22:49:12.449Z,96.41
2023-03-23T22:51:40.983Z,96.24
2023-03-23T22:54:11.084Z,96.09
2023-03-23T22:56:40.144Z,95.86
2023-03-23T22:59:12.277Z,95.78
2023-03-23T23:01:41.754Z,95.58
2023-03-23T23:04:10.142Z,95.45
2023-03-23T23:06:38.556Z,95.34
2023-03-23T23:09:07.173Z,95.32
2023-03-23T23:11:35.696Z,95.25
2023-03-23T23:14:04.101Z,95.19
2023-03-23T23:16:32.685Z,95.21
2023-03-23T23:19:00.949Z,95.12
2023-03-23T23:21:30.308Z,95.00
2023-03-23T23:23:58.571Z,95.18
2023-03-23T23:26:27.625Z,95.15
2023-03-23T23:28:55.928Z,95.11
2023-03-23T23:31:31.649Z,95.29
2023-03-23T23:34:01.611Z,95.31
2023-03-23T23:36:31.944Z,95.29
2023-03-23T23:39:01.704Z,95.25
2023-03-23T23:41:30.949Z,95.01
2023-03-23T23:44:00.155Z,95.08
2023-03-23T23:46:30.633Z,95.11
2023-03-23T23:49:00.439Z,94.88
2023-03-23T23:51:29.804Z,94.98
2023-03-23T23:54:01.880Z,95.05
2023-03-23T23:56:30.438Z,95.14
2023-03-23T23:59:00.714Z,95.06
